sensor_id;sensor_type;location;lat;lon;timestamp;P1;durP1;ratioP1;P2;durP2;ratioP2
70547;SDS011;58099;43.406;3.698;2022-10-16T00:01:51;14.23;;;4.60;;
70547;SDS011;58099;43.406;3.698;2022-10-16T00:04:17;13.20;;;5.28;;
70547;SDS011;58099;43.406;3.698;2022-10-16T00:06:42;13.87;;;4.93;;
70547;SDS011;58099;43.406;3.698;2022-10-16T00:09:08;18.15;;;5.50;;
70547;SDS011;58099;43.406;3.698;2022-10-16T00:11:35;18.60;;;5.03;;
70547;SDS011;58099;43.406;3.698;2022-10-16T00:14:03;17.25;;;5.50;;
70547;SDS011;58099;43.406;3.698;2022-10-16T00:16:30;12.90;;;5.47;;
70547;SDS011;58099;43.406;3.698;2022-10-16T00:18:56;12.97;;;5.43;;
70547;SDS011;58099;43.406;3.698;2022-10-16T00:21:24;14.68;;;5.60;;
70547;SDS011;58099;43.406;3.698;2022-10-16T00:23:52;18.20;;;4.97;;
70547;SDS011;58099;43.406;3.698;2022-10-16T00:26:20;17.42;;;5.32;;
70547;SDS011;58099;43.406;3.698;2022-10-16T00:28:46;15.13;;;5.07;;
70547;SDS011;58099;43.406;3.698;2022-10-16T00:31:13;15.35;;;5.32;;
70547;SDS011;58099;43.406;3.698;2022-10-16T00:33:39;13.88;;;5.40;;
70547;SDS011;58099;43.406;3.698;2022-10-16T00:36:06;14.90;;;5.15;;
70547;SDS011;58099;43.406;3.698;2022-10-16T00:38:34;15.77;;;5.85;;
70547;SDS011;58099;43.406;3.698;2022-10-16T00:41:00;16.47;;;5.27;;
70547;SDS011;58099;43.406;3.698;2022-10-16T00:46:04;12.30;;;5.55;;
70547;SDS011;58099;43.406;3.698;2022-10-16T00:49:05;14.97;;;5.30;;
70547;SDS011;58099;43.406;3.698;2022-10-16T00:51:38;13.48;;;4.97;;
70547;SDS011;58099;43.406;3.698;2022-10-16T00:54:16;13.43;;;5.25;;
70547;SDS011;58099;43.406;3.698;2022-10-16T00:56:48;14.65;;;5.40;;
70547;SDS011;58099;43.406;3.698;2022-10-16T00:59:19;14.32;;;5.28;;
70547;SDS011;58099;43.406;3.698;2022-10-16T01:01:49;14.87;;;5.83;;
70547;SDS011;58099;43.406;3.698;2022-10-16T01:04:16;17.20;;;5.82;;
70547;SDS011;58099;43.406;3.698;2022-10-16T01:09:28;13.95;;;5.35;;
70547;SDS011;58099;43.406;3.698;2022-10-16T01:12:10;16.27;;;6.43;;
70547;SDS011;58099;43.406;3.698;2022-10-16T01:14:40;19.47;;;6.70;;
70547;SDS011;58099;43.406;3.698;2022-10-16T01:17:34;15.63;;;6.70;;
70547;SDS011;58099;43.406;3.698;2022-10-16T01:28:49;14.17;;;6.10;;
70547;SDS011;58099;43.406;3.698;2022-10-16T01:31:22;14.05;;;5.60;;
70547;SDS011;58099;43.406;3.698;2022-10-16T01:33:53;18.52;;;5.68;;
70547;SDS011;58099;43.406;3.698;2022-10-16T01:36:35;16.75;;;5.60;;
70547;SDS011;58099;43.406;3.698;2022-10-16T01:39:05;19.40;;;6.63;;
70547;SDS011;58099;43.406;3.698;2022-10-16T01:41:35;19.30;;;6.53;;
70547;SDS011;58099;43.406;3.698;2022-10-16T01:44:11;16.90;;;6.43;;
70547;SDS011;58099;43.406;3.698;2022-10-16T01:46:43;18.05;;;6.47;;
70547;SDS011;58099;43.406;3.698;2022-10-16T01:49:12;19.42;;;5.97;;
70547;SDS011;58099;43.406;3.698;2022-10-16T01:51:38;16.88;;;6.18;;
70547;SDS011;58099;43.406;3.698;2022-10-16T01:54:04;17.47;;;6.77;;
70547;SDS011;58099;43.406;3.698;2022-10-16T01:56:33;19.60;;;7.03;;
70547;SDS011;58099;43.406;3.698;2022-10-16T02:01:32;15.88;;;7.03;;
70547;SDS011;58099;43.406;3.698;2022-10-16T02:04:03;19.07;;;7.00;;
70547;SDS011;58099;43.406;3.698;2022-10-16T02:06:33;17.63;;;6.45;;
70547;SDS011;58099;43.406;3.698;2022-10-16T02:09:00;19.52;;;6.95;;
70547;SDS011;58099;43.406;3.698;2022-10-16T02:11:26;21.35;;;7.22;;
70547;SDS011;58099;43.406;3.698;2022-10-16T02:13:55;19.33;;;7.23;;
70547;SDS011;58099;43.406;3.698;2022-10-16T02:16:36;21.80;;;6.97;;
70547;SDS011;58099;43.406;3.698;2022-10-16T02:19:04;20.45;;;6.78;;
70547;SDS011;58099;43.406;3.698;2022-10-16T02:24:08;18.35;;;6.30;;
70547;SDS011;58099;43.406;3.698;2022-10-16T02:26:41;20.73;;;6.88;;
70547;SDS011;58099;43.406;3.698;2022-10-16T02:29:19;18.58;;;6.65;;
70547;SDS011;58099;43.406;3.698;2022-10-16T02:31:49;22.85;;;7.03;;
70547;SDS011;58099;43.406;3.698;2022-10-16T02:34:20;19.83;;;7.03;;
70547;SDS011;58099;43.406;3.698;2022-10-16T02:36:48;21.80;;;7.85;;
70547;SDS011;58099;43.406;3.698;2022-10-16T02:39:16;17.13;;;7.60;;
70547;SDS011;58099;43.406;3.698;2022-10-16T02:41:43;16.92;;;6.20;;
70547;SDS011;58099;43.406;3.698;2022-10-16T02:44:09;19.63;;;6.57;;
70547;SDS011;58099;43.406;3.698;2022-10-16T02:46:34;18.73;;;5.85;;
70547;SDS011;58099;43.406;3.698;2022-10-16T02:49:00;13.97;;;5.97;;
70547;SDS011;58099;43.406;3.698;2022-10-16T02:51:26;18.10;;;6.20;;
70547;SDS011;58099;43.406;3.698;2022-10-16T02:53:51;16.87;;;5.27;;
70547;SDS011;58099;43.406;3.698;2022-10-16T02:56:17;14.95;;;5.35;;
70547;SDS011;58099;43.406;3.698;2022-10-16T02:58:43;15.45;;;5.45;;
70547;SDS011;58099;43.406;3.698;2022-10-16T03:01:09;11.10;;;4.50;;
70547;SDS011;58099;43.406;3.698;2022-10-16T03:03:37;12.85;;;5.03;;
70547;SDS011;58099;43.406;3.698;2022-10-16T03:06:03;14.25;;;4.88;;
70547;SDS011;58099;43.406;3.698;2022-10-16T03:08:28;15.03;;;5.00;;
70547;SDS011;58099;43.406;3.698;2022-10-16T03:10:54;18.60;;;5.15;;
70547;SDS011;58099;43.406;3.698;2022-10-16T03:13:20;18.00;;;5.47;;
70547;SDS011;58099;43.406;3.698;2022-10-16T03:15:46;14.77;;;6.65;;
70547;SDS011;58099;43.406;3.698;2022-10-16T03:18:11;17.70;;;6.87;;
70547;SDS011;58099;43.406;3.698;2022-10-16T03:20:37;15.57;;;5.60;;
70547;SDS011;58099;43.406;3.698;2022-10-16T03:23:03;13.93;;;5.27;;
70547;SDS011;58099;43.406;3.698;2022-10-16T03:25:28;17.27;;;6.45;;
70547;SDS011;58099;43.406;3.698;2022-10-16T03:27:54;14.10;;;5.60;;
70547;SDS011;58099;43.406;3.698;2022-10-16T03:30:20;18.05;;;6.53;;
70547;SDS011;58099;43.406;3.698;2022-10-16T03:32:46;16.57;;;5.77;;
70547;SDS011;58099;43.406;3.698;2022-10-16T03:35:12;16.98;;;5.80;;
70547;SDS011;58099;43.406;3.698;2022-10-16T03:37:38;14.73;;;6.32;;
70547;SDS011;58099;43.406;3.698;2022-10-16T03:40:04;17.00;;;5.33;;
70547;SDS011;58099;43.406;3.698;2022-10-16T03:42:30;19.58;;;6.85;;
70547;SDS011;58099;43.406;3.698;2022-10-16T03:44:56;19.67;;;7.47;;
70547;SDS011;58099;43.406;3.698;2022-10-16T03:47:21;19.15;;;8.65;;
70547;SDS011;58099;43.406;3.698;2022-10-16T03:49:49;22.23;;;9.18;;
70547;SDS011;58099;43.406;3.698;2022-10-16T03:52:14;18.87;;;8.20;;
70547;SDS011;58099;43.406;3.698;2022-10-16T03:54:40;22.67;;;8.50;;
70547;SDS011;58099;43.406;3.698;2022-10-16T03:57:06;20.48;;;8.63;;
70547;SDS011;58099;43.406;3.698;2022-10-16T03:59:32;19.33;;;7.87;;
70547;SDS011;58099;43.406;3.698;2022-10-16T04:01:57;22.02;;;8.95;;
70547;SDS011;58099;43.406;3.698;2022-10-16T04:04:23;17.60;;;8.48;;
70547;SDS011;58099;43.406;3.698;2022-10-16T04:06:49;20.73;;;8.77;;
70547;SDS011;58099;43.406;3.698;2022-10-16T04:09:16;24.00;;;10.00;;
70547;SDS011;58099;43.406;3.698;2022-10-16T04:11:41;20.42;;;9.95;;
70547;SDS011;58099;43.406;3.698;2022-10-16T04:14:08;22.08;;;10.02;;
70547;SDS011;58099;43.406;3.698;2022-10-16T04:16:33;22.73;;;10.13;;
70547;SDS011;58099;43.406;3.698;2022-10-16T04:18:59;23.13;;;11.87;;
70547;SDS011;58099;43.406;3.698;2022-10-16T04:21:25;21.77;;;10.75;;
70547;SDS011;58099;43.406;3.698;2022-10-16T04:23:51;21.90;;;11.27;;
70547;SDS011;58099;43.406;3.698;2022-10-16T04:26:17;19.33;;;9.50;;
70547;SDS011;58099;43.406;3.698;2022-10-16T04:28:43;19.95;;;9.88;;
70547;SDS011;58099;43.406;3.698;2022-10-16T04:31:08;19.83;;;10.03;;
70547;SDS011;58099;43.406;3.698;2022-10-16T04:33:34;21.90;;;9.53;;
70547;SDS011;58099;43.406;3.698;2022-10-16T04:36:00;20.85;;;9.05;;
70547;SDS011;58099;43.406;3.698;2022-10-16T04:38:27;16.42;;;7.80;;
70547;SDS011;58099;43.406;3.698;2022-10-16T04:40:52;20.17;;;8.30;;
70547;SDS011;58099;43.406;3.698;2022-10-16T04:43:18;24.48;;;8.50;;
70547;SDS011;58099;43.406;3.698;2022-10-16T04:45:45;21.88;;;8.35;;
70547;SDS011;58099;43.406;3.698;2022-10-16T04:48:11;21.27;;;7.50;;
70547;SDS011;58099;43.406;3.698;2022-10-16T04:50:36;19.92;;;7.80;;
70547;SDS011;58099;43.406;3.698;2022-10-16T04:53:02;22.10;;;9.30;;
70547;SDS011;58099;43.406;3.698;2022-10-16T04:55:28;20.52;;;10.13;;
70547;SDS011;58099;43.406;3.698;2022-10-16T04:57:53;23.37;;;8.93;;
70547;SDS011;58099;43.406;3.698;2022-10-16T05:00:19;19.63;;;9.30;;
70547;SDS011;58099;43.406;3.698;2022-10-16T05:02:45;25.77;;;8.13;;
70547;SDS011;58099;43.406;3.698;2022-10-16T05:05:11;17.83;;;8.20;;
70547;SDS011;58099;43.406;3.698;2022-10-16T05:07:37;21.00;;;8.57;;
70547;SDS011;58099;43.406;3.698;2022-10-16T05:10:02;17.90;;;7.07;;
70547;SDS011;58099;43.406;3.698;2022-10-16T05:12:28;20.47;;;7.67;;
70547;SDS011;58099;43.406;3.698;2022-10-16T05:14:54;20.23;;;8.13;;
70547;SDS011;58099;43.406;3.698;2022-10-16T05:17:23;21.27;;;7.60;;
70547;SDS011;58099;43.406;3.698;2022-10-16T05:19:50;18.77;;;7.28;;
70547;SDS011;58099;43.406;3.698;2022-10-16T05:22:16;16.17;;;6.90;;
70547;SDS011;58099;43.406;3.698;2022-10-16T05:24:41;18.95;;;7.05;;
70547;SDS011;58099;43.406;3.698;2022-10-16T05:27:07;18.70;;;6.77;;
70547;SDS011;58099;43.406;3.698;2022-10-16T05:29:33;18.60;;;8.93;;
70547;SDS011;58099;43.406;3.698;2022-10-16T05:31:58;19.70;;;8.07;;
70547;SDS011;58099;43.406;3.698;2022-10-16T05:34:24;18.93;;;8.43;;
70547;SDS011;58099;43.406;3.698;2022-10-16T05:36:50;20.50;;;7.68;;
70547;SDS011;58099;43.406;3.698;2022-10-16T05:39:16;21.00;;;8.43;;
70547;SDS011;58099;43.406;3.698;2022-10-16T05:41:42;19.70;;;7.90;;
70547;SDS011;58099;43.406;3.698;2022-10-16T05:44:08;20.73;;;9.20;;
70547;SDS011;58099;43.406;3.698;2022-10-16T05:46:34;18.08;;;8.55;;
70547;SDS011;58099;43.406;3.698;2022-10-16T05:48:59;22.60;;;9.47;;
70547;SDS011;58099;43.406;3.698;2022-10-16T05:51:26;21.98;;;9.70;;
70547;SDS011;58099;43.406;3.698;2022-10-16T05:53:51;22.02;;;9.18;;
70547;SDS011;58099;43.406;3.698;2022-10-16T05:56:17;20.20;;;9.03;;
70547;SDS011;58099;43.406;3.698;2022-10-16T05:58:43;21.08;;;9.25;;
70547;SDS011;58099;43.406;3.698;2022-10-16T06:01:13;22.10;;;8.70;;
70547;SDS011;58099;43.406;3.698;2022-10-16T06:03:41;22.85;;;9.20;;
70547;SDS011;58099;43.406;3.698;2022-10-16T06:06:15;21.03;;;9.27;;
70547;SDS011;58099;43.406;3.698;2022-10-16T06:08:45;24.60;;;9.00;;
70547;SDS011;58099;43.406;3.698;2022-10-16T06:11:14;25.27;;;8.43;;
70547;SDS011;58099;43.406;3.698;2022-10-16T06:13:43;22.83;;;9.25;;
70547;SDS011;58099;43.406;3.698;2022-10-16T06:16:11;20.08;;;8.80;;
70547;SDS011;58099;43.406;3.698;2022-10-16T06:18:37;25.30;;;9.93;;
70547;SDS011;58099;43.406;3.698;2022-10-16T06:21:23;22.38;;;10.30;;
70547;SDS011;58099;43.406;3.698;2022-10-16T06:23:50;19.70;;;9.18;;
70547;SDS011;58099;43.406;3.698;2022-10-16T06:26:17;22.00;;;8.43;;
70547;SDS011;58099;43.406;3.698;2022-10-16T06:28:45;19.98;;;9.30;;
70547;SDS011;58099;43.406;3.698;2022-10-16T06:31:11;24.97;;;10.03;;
70547;SDS011;58099;43.406;3.698;2022-10-16T06:33:37;23.08;;;9.35;;
70547;SDS011;58099;43.406;3.698;2022-10-16T06:36:07;21.30;;;9.23;;
70547;SDS011;58099;43.406;3.698;2022-10-16T06:38:35;20.90;;;8.35;;
70547;SDS011;58099;43.406;3.698;2022-10-16T06:41:00;21.70;;;8.17;;
70547;SDS011;58099;43.406;3.698;2022-10-16T06:43:28;26.02;;;10.23;;
70547;SDS011;58099;43.406;3.698;2022-10-16T06:45:56;27.02;;;9.15;;
70547;SDS011;58099;43.406;3.698;2022-10-16T06:48:23;24.43;;;9.27;;
70547;SDS011;58099;43.406;3.698;2022-10-16T06:50:56;23.33;;;8.07;;
70547;SDS011;58099;43.406;3.698;2022-10-16T06:53:31;22.08;;;8.32;;
70547;SDS011;58099;43.406;3.698;2022-10-16T06:56:14;27.23;;;9.13;;
70547;SDS011;58099;43.406;3.698;2022-10-16T06:58:41;20.92;;;6.72;;
70547;SDS011;58099;43.406;3.698;2022-10-16T07:01:08;22.17;;;7.83;;
70547;SDS011;58099;43.406;3.698;2022-10-16T07:03:38;19.73;;;7.05;;
70547;SDS011;58099;43.406;3.698;2022-10-16T07:06:08;19.15;;;6.35;;
70547;SDS011;58099;43.406;3.698;2022-10-16T07:08:37;17.20;;;7.15;;
70547;SDS011;58099;43.406;3.698;2022-10-16T07:11:05;22.17;;;6.90;;
70547;SDS011;58099;43.406;3.698;2022-10-16T07:13:38;20.93;;;6.93;;
70547;SDS011;58099;43.406;3.698;2022-10-16T07:18:31;19.15;;;7.57;;
70547;SDS011;58099;43.406;3.698;2022-10-16T07:21:06;19.07;;;6.60;;
70547;SDS011;58099;43.406;3.698;2022-10-16T07:23:34;16.77;;;6.85;;
70547;SDS011;58099;43.406;3.698;2022-10-16T07:26:00;22.00;;;6.68;;
70547;SDS011;58099;43.406;3.698;2022-10-16T07:28:26;20.88;;;7.30;;
70547;SDS011;58099;43.406;3.698;2022-10-16T07:30:52;17.93;;;7.30;;
70547;SDS011;58099;43.406;3.698;2022-10-16T07:33:18;19.98;;;6.85;;
70547;SDS011;58099;43.406;3.698;2022-10-16T07:35:48;17.40;;;6.45;;
70547;SDS011;58099;43.406;3.698;2022-10-16T07:38:15;16.60;;;4.95;;
70547;SDS011;58099;43.406;3.698;2022-10-16T07:40:40;20.23;;;6.87;;
70547;SDS011;58099;43.406;3.698;2022-10-16T07:43:06;18.25;;;7.00;;
70547;SDS011;58099;43.406;3.698;2022-10-16T07:45:32;16.00;;;5.80;;
70547;SDS011;58099;43.406;3.698;2022-10-16T07:47:57;23.27;;;7.33;;
70547;SDS011;58099;43.406;3.698;2022-10-16T07:50:23;20.98;;;7.03;;
70547;SDS011;58099;43.406;3.698;2022-10-16T07:52:49;17.00;;;6.63;;
70547;SDS011;58099;43.406;3.698;2022-10-16T07:55:14;20.63;;;8.85;;
70547;SDS011;58099;43.406;3.698;2022-10-16T07:57:40;16.67;;;7.87;;
70547;SDS011;58099;43.406;3.698;2022-10-16T08:00:06;22.40;;;7.50;;
70547;SDS011;58099;43.406;3.698;2022-10-16T08:02:32;21.88;;;7.00;;
70547;SDS011;58099;43.406;3.698;2022-10-16T08:04:58;23.00;;;6.88;;
70547;SDS011;58099;43.406;3.698;2022-10-16T08:07:23;23.60;;;7.30;;
70547;SDS011;58099;43.406;3.698;2022-10-16T08:09:49;19.20;;;6.32;;
70547;SDS011;58099;43.406;3.698;2022-10-16T08:12:16;12.75;;;5.95;;
70547;SDS011;58099;43.406;3.698;2022-10-16T08:14:42;17.70;;;7.07;;
70547;SDS011;58099;43.406;3.698;2022-10-16T08:17:08;22.93;;;7.20;;
70547;SDS011;58099;43.406;3.698;2022-10-16T08:19:33;17.35;;;7.22;;
70547;SDS011;58099;43.406;3.698;2022-10-16T08:22:00;19.43;;;7.07;;
70547;SDS011;58099;43.406;3.698;2022-10-16T08:24:26;16.40;;;6.63;;
70547;SDS011;58099;43.406;3.698;2022-10-16T08:26:53;20.77;;;6.82;;
70547;SDS011;58099;43.406;3.698;2022-10-16T08:29:19;17.27;;;5.73;;
70547;SDS011;58099;43.406;3.698;2022-10-16T08:31:45;19.30;;;6.25;;
70547;SDS011;58099;43.406;3.698;2022-10-16T08:34:10;13.93;;;4.83;;
70547;SDS011;58099;43.406;3.698;2022-10-16T08:36:36;18.73;;;6.10;;
70547;SDS011;58099;43.406;3.698;2022-10-16T08:39:02;19.53;;;7.33;;
70547;SDS011;58099;43.406;3.698;2022-10-16T08:41:49;16.30;;;6.43;;
70547;SDS011;58099;43.406;3.698;2022-10-16T08:48:03;15.57;;;5.90;;
70547;SDS011;58099;43.406;3.698;2022-10-16T08:50:11;20.50;;;6.57;;
70547;SDS011;58099;43.406;3.698;2022-10-16T08:52:40;15.32;;;6.68;;
70547;SDS011;58099;43.406;3.698;2022-10-16T08:55:16;18.40;;;7.35;;
70547;SDS011;58099;43.406;3.698;2022-10-16T08:57:48;20.88;;;7.28;;
70547;SDS011;58099;43.406;3.698;2022-10-16T09:00:14;20.83;;;7.13;;
70547;SDS011;58099;43.406;3.698;2022-10-16T09:02:46;18.23;;;6.40;;
70547;SDS011;58099;43.406;3.698;2022-10-16T09:05:52;15.48;;;5.38;;
70547;SDS011;58099;43.406;3.698;2022-10-16T09:14:07;14.00;;;5.30;;
70547;SDS011;58099;43.406;3.698;2022-10-16T09:17:07;19.95;;;6.85;;
70547;SDS011;58099;43.406;3.698;2022-10-16T09:19:38;14.70;;;5.45;;
70547;SDS011;58099;43.406;3.698;2022-10-16T09:22:12;20.55;;;7.07;;
70547;SDS011;58099;43.406;3.698;2022-10-16T09:24:40;14.43;;;6.05;;
70547;SDS011;58099;43.406;3.698;2022-10-16T09:27:15;20.37;;;6.80;;
70547;SDS011;58099;43.406;3.698;2022-10-16T09:29:41;13.57;;;4.72;;
70547;SDS011;58099;43.406;3.698;2022-10-16T09:32:27;17.23;;;6.75;;
70547;SDS011;58099;43.406;3.698;2022-10-16T09:34:54;15.05;;;5.18;;
70547;SDS011;58099;43.406;3.698;2022-10-16T09:37:23;12.77;;;5.20;;
70547;SDS011;58099;43.406;3.698;2022-10-16T09:39:51;12.73;;;5.47;;
70547;SDS011;58099;43.406;3.698;2022-10-16T09:42:26;11.23;;;5.57;;
70547;SDS011;58099;43.406;3.698;2022-10-16T09:44:56;16.20;;;6.43;;
70547;SDS011;58099;43.406;3.698;2022-10-16T09:47:28;15.85;;;5.22;;
70547;SDS011;58099;43.406;3.698;2022-10-16T09:49:57;13.85;;;6.32;;
70547;SDS011;58099;43.406;3.698;2022-10-16T09:52:30;15.80;;;6.60;;
70547;SDS011;58099;43.406;3.698;2022-10-16T09:57:23;18.90;;;6.85;;
70547;SDS011;58099;43.406;3.698;2022-10-16T09:59:50;18.37;;;6.07;;
70547;SDS011;58099;43.406;3.698;2022-10-16T10:02:34;16.98;;;6.38;;
70547;SDS011;58099;43.406;3.698;2022-10-16T10:05:03;16.08;;;6.10;;
70547;SDS011;58099;43.406;3.698;2022-10-16T10:07:31;18.10;;;6.13;;
70547;SDS011;58099;43.406;3.698;2022-10-16T10:10:01;14.82;;;6.18;;
70547;SDS011;58099;43.406;3.698;2022-10-16T10:12:29;21.20;;;7.97;;
70547;SDS011;58099;43.406;3.698;2022-10-16T10:15:09;20.35;;;7.95;;
70547;SDS011;58099;43.406;3.698;2022-10-16T10:17:46;24.27;;;8.07;;
70547;SDS011;58099;43.406;3.698;2022-10-16T10:20:24;18.88;;;6.68;;
70547;SDS011;58099;43.406;3.698;2022-10-16T10:22:56;22.23;;;6.28;;
70547;SDS011;58099;43.406;3.698;2022-10-16T10:33:19;14.32;;;5.97;;
70547;SDS011;58099;43.406;3.698;2022-10-16T10:38:58;14.53;;;6.37;;
70547;SDS011;58099;43.406;3.698;2022-10-16T10:41:44;16.90;;;6.00;;
70547;SDS011;58099;43.406;3.698;2022-10-16T10:52:40;16.17;;;6.17;;
70547;SDS011;58099;43.406;3.698;2022-10-16T10:55:24;14.48;;;5.63;;
70547;SDS011;58099;43.406;3.698;2022-10-16T11:00:44;20.30;;;6.82;;
70547;SDS011;58099;43.406;3.698;2022-10-16T11:06:24;15.33;;;6.50;;
70547;SDS011;58099;43.406;3.698;2022-10-16T11:08:55;16.00;;;6.20;;
70547;SDS011;58099;43.406;3.698;2022-10-16T11:11:31;12.45;;;5.70;;
70547;SDS011;58099;43.406;3.698;2022-10-16T11:14:38;21.23;;;7.15;;
70547;SDS011;58099;43.406;3.698;2022-10-16T11:17:15;16.58;;;6.90;;
70547;SDS011;58099;43.406;3.698;2022-10-16T11:20:11;16.83;;;6.97;;
70547;SDS011;58099;43.406;3.698;2022-10-16T11:22:39;18.15;;;5.53;;
70547;SDS011;58099;43.406;3.698;2022-10-16T11:25:34;16.90;;;6.03;;
70547;SDS011;58099;43.406;3.698;2022-10-16T11:31:29;16.53;;;6.73;;
70547;SDS011;58099;43.406;3.698;2022-10-16T11:37:17;15.50;;;5.90;;
70547;SDS011;58099;43.406;3.698;2022-10-16T11:39:57;18.88;;;6.72;;
70547;SDS011;58099;43.406;3.698;2022-10-16T11:42:37;17.60;;;7.03;;
70547;SDS011;58099;43.406;3.698;2022-10-16T11:55:48;18.15;;;6.43;;
70547;SDS011;58099;43.406;3.698;2022-10-16T11:58:20;20.83;;;7.20;;
70547;SDS011;58099;43.406;3.698;2022-10-16T12:01:46;19.42;;;6.35;;
70547;SDS011;58099;43.406;3.698;2022-10-16T12:06:42;15.73;;;6.60;;
70547;SDS011;58099;43.406;3.698;2022-10-16T12:09:30;15.75;;;6.07;;
70547;SDS011;58099;43.406;3.698;2022-10-16T12:11:57;14.05;;;6.30;;
70547;SDS011;58099;43.406;3.698;2022-10-16T12:16:56;14.48;;;6.45;;
70547;SDS011;58099;43.406;3.698;2022-10-16T12:19:27;15.00;;;6.33;;
70547;SDS011;58099;43.406;3.698;2022-10-16T12:21:58;14.95;;;5.38;;
70547;SDS011;58099;43.406;3.698;2022-10-16T12:27:06;14.45;;;4.85;;
70547;SDS011;58099;43.406;3.698;2022-10-16T12:29:54;15.45;;;5.70;;
70547;SDS011;58099;43.406;3.698;2022-10-16T12:32:31;15.97;;;6.03;;
70547;SDS011;58099;43.406;3.698;2022-10-16T12:35:00;20.40;;;4.97;;
70547;SDS011;58099;43.406;3.698;2022-10-16T12:37:34;15.88;;;5.85;;
70547;SDS011;58099;43.406;3.698;2022-10-16T12:40:15;16.13;;;5.85;;
70547;SDS011;58099;43.406;3.698;2022-10-16T12:42:50;17.50;;;6.25;;
70547;SDS011;58099;43.406;3.698;2022-10-16T12:47:52;16.27;;;5.30;;
70547;SDS011;58099;43.406;3.698;2022-10-16T12:50:36;15.63;;;5.70;;
70547;SDS011;58099;43.406;3.698;2022-10-16T12:53:04;16.40;;;5.72;;
70547;SDS011;58099;43.406;3.698;2022-10-16T13:10:21;14.93;;;6.27;;
70547;SDS011;58099;43.406;3.698;2022-10-16T13:13:02;12.95;;;5.07;;
70547;SDS011;58099;43.406;3.698;2022-10-16T13:16:08;20.98;;;6.32;;
70547;SDS011;58099;43.406;3.698;2022-10-16T13:21:42;10.23;;;4.20;;
70547;SDS011;58099;43.406;3.698;2022-10-16T13:30:12;16.85;;;6.25;;
70547;SDS011;58099;43.406;3.698;2022-10-16T13:33:04;14.10;;;5.18;;
70547;SDS011;58099;43.406;3.698;2022-10-16T13:35:46;12.77;;;5.43;;
70547;SDS011;58099;43.406;3.698;2022-10-16T13:38:15;16.07;;;6.23;;
70547;SDS011;58099;43.406;3.698;2022-10-16T13:44:02;15.45;;;5.78;;
70547;SDS011;58099;43.406;3.698;2022-10-16T13:46:15;16.58;;;5.90;;
70547;SDS011;58099;43.406;3.698;2022-10-16T13:48:42;18.13;;;5.78;;
70547;SDS011;58099;43.406;3.698;2022-10-16T13:51:15;16.53;;;5.97;;
70547;SDS011;58099;43.406;3.698;2022-10-16T13:53:43;18.98;;;6.32;;
70547;SDS011;58099;43.406;3.698;2022-10-16T13:56:11;16.65;;;5.78;;
70547;SDS011;58099;43.406;3.698;2022-10-16T13:58:41;14.38;;;5.40;;
70547;SDS011;58099;43.406;3.698;2022-10-16T14:01:18;17.42;;;5.50;;
70547;SDS011;58099;43.406;3.698;2022-10-16T14:03:48;15.40;;;6.30;;
70547;SDS011;58099;43.406;3.698;2022-10-16T14:06:16;14.88;;;6.03;;
70547;SDS011;58099;43.406;3.698;2022-10-16T14:08:48;13.18;;;5.07;;
70547;SDS011;58099;43.406;3.698;2022-10-16T14:11:44;15.88;;;4.60;;
70547;SDS011;58099;43.406;3.698;2022-10-16T14:14:14;14.00;;;5.40;;
70547;SDS011;58099;43.406;3.698;2022-10-16T14:16:41;15.43;;;4.57;;
70547;SDS011;58099;43.406;3.698;2022-10-16T14:19:45;14.00;;;5.38;;
70547;SDS011;58099;43.406;3.698;2022-10-16T14:22:00;15.57;;;5.68;;
70547;SDS011;58099;43.406;3.698;2022-10-16T14:26:56;14.35;;;5.63;;
70547;SDS011;58099;43.406;3.698;2022-10-16T14:29:22;19.47;;;5.80;;
70547;SDS011;58099;43.406;3.698;2022-10-16T14:34:34;16.55;;;5.63;;
70547;SDS011;58099;43.406;3.698;2022-10-16T14:39:38;14.80;;;5.05;;
70547;SDS011;58099;43.406;3.698;2022-10-16T14:42:11;17.70;;;5.50;;
70547;SDS011;58099;43.406;3.698;2022-10-16T14:44:42;16.95;;;5.90;;
70547;SDS011;58099;43.406;3.698;2022-10-16T14:47:09;16.70;;;6.18;;
70547;SDS011;58099;43.406;3.698;2022-10-16T14:49:40;19.30;;;5.90;;
70547;SDS011;58099;43.406;3.698;2022-10-16T14:52:10;13.45;;;6.13;;
70547;SDS011;58099;43.406;3.698;2022-10-16T14:54:37;13.33;;;4.93;;
70547;SDS011;58099;43.406;3.698;2022-10-16T14:57:03;17.13;;;4.75;;
70547;SDS011;58099;43.406;3.698;2022-10-16T14:59:32;16.25;;;5.40;;
70547;SDS011;58099;43.406;3.698;2022-10-16T15:02:01;10.98;;;4.43;;
70547;SDS011;58099;43.406;3.698;2022-10-16T15:04:48;18.75;;;6.82;;
70547;SDS011;58099;43.406;3.698;2022-10-16T15:07:14;16.13;;;5.50;;
70547;SDS011;58099;43.406;3.698;2022-10-16T15:09:40;15.52;;;5.07;;
70547;SDS011;58099;43.406;3.698;2022-10-16T15:12:05;17.33;;;5.30;;
70547;SDS011;58099;43.406;3.698;2022-10-16T15:14:31;18.33;;;5.53;;
70547;SDS011;58099;43.406;3.698;2022-10-16T15:16:57;18.10;;;5.85;;
70547;SDS011;58099;43.406;3.698;2022-10-16T15:19:23;14.23;;;4.37;;
70547;SDS011;58099;43.406;3.698;2022-10-16T15:21:49;17.33;;;5.75;;
70547;SDS011;58099;43.406;3.698;2022-10-16T15:24:14;20.27;;;5.27;;
70547;SDS011;58099;43.406;3.698;2022-10-16T15:26:40;16.15;;;5.65;;
70547;SDS011;58099;43.406;3.698;2022-10-16T15:29:06;14.48;;;4.30;;
70547;SDS011;58099;43.406;3.698;2022-10-16T15:31:33;15.52;;;5.55;;
70547;SDS011;58099;43.406;3.698;2022-10-16T15:33:59;20.30;;;5.70;;
70547;SDS011;58099;43.406;3.698;2022-10-16T15:36:30;16.88;;;6.22;;
70547;SDS011;58099;43.406;3.698;2022-10-16T15:38:59;12.55;;;4.57;;
70547;SDS011;58099;43.406;3.698;2022-10-16T15:41:25;17.08;;;6.20;;
70547;SDS011;58099;43.406;3.698;2022-10-16T15:43:51;14.13;;;6.20;;
70547;SDS011;58099;43.406;3.698;2022-10-16T15:46:21;16.55;;;6.30;;
70547;SDS011;58099;43.406;3.698;2022-10-16T15:48:48;16.38;;;5.60;;
70547;SDS011;58099;43.406;3.698;2022-10-16T15:51:15;15.45;;;4.90;;
70547;SDS011;58099;43.406;3.698;2022-10-16T15:53:42;18.67;;;6.15;;
70547;SDS011;58099;43.406;3.698;2022-10-16T15:56:09;18.13;;;6.03;;
70547;SDS011;58099;43.406;3.698;2022-10-16T15:58:36;17.67;;;6.53;;
70547;SDS011;58099;43.406;3.698;2022-10-16T16:01:02;16.33;;;5.05;;
70547;SDS011;58099;43.406;3.698;2022-10-16T16:03:29;16.45;;;4.57;;
70547;SDS011;58099;43.406;3.698;2022-10-16T16:05:56;14.37;;;4.90;;
70547;SDS011;58099;43.406;3.698;2022-10-16T16:08:22;12.05;;;4.18;;
70547;SDS011;58099;43.406;3.698;2022-10-16T16:11:07;19.88;;;6.22;;
70547;SDS011;58099;43.406;3.698;2022-10-16T16:13:37;14.45;;;5.25;;
70547;SDS011;58099;43.406;3.698;2022-10-16T16:16:10;18.07;;;5.13;;
70547;SDS011;58099;43.406;3.698;2022-10-16T16:18:37;19.42;;;5.32;;
70547;SDS011;58099;43.406;3.698;2022-10-16T16:21:04;17.33;;;6.45;;
70547;SDS011;58099;43.406;3.698;2022-10-16T16:23:30;12.68;;;4.60;;
70547;SDS011;58099;43.406;3.698;2022-10-16T16:26:16;16.58;;;5.72;;
70547;SDS011;58099;43.406;3.698;2022-10-16T16:28:52;16.70;;;4.70;;
70547;SDS011;58099;43.406;3.698;2022-10-16T16:31:19;12.25;;;5.05;;
70547;SDS011;58099;43.406;3.698;2022-10-16T16:33:46;15.45;;;5.55;;
70547;SDS011;58099;43.406;3.698;2022-10-16T16:36:12;16.95;;;4.72;;
70547;SDS011;58099;43.406;3.698;2022-10-16T16:38:37;18.07;;;4.40;;
70547;SDS011;58099;43.406;3.698;2022-10-16T16:41:16;18.80;;;4.72;;
70547;SDS011;58099;43.406;3.698;2022-10-16T16:43:44;17.93;;;5.80;;
70547;SDS011;58099;43.406;3.698;2022-10-16T16:46:10;18.35;;;5.20;;
70547;SDS011;58099;43.406;3.698;2022-10-16T16:48:37;20.00;;;5.63;;
70547;SDS011;58099;43.406;3.698;2022-10-16T16:51:07;13.05;;;5.03;;